Time;durP1;ratioP1;P1;durP2;ratioP2;P2;SDS_P1;SDS_P2;PMS_P1;PMS_P2;Temp;Humidity;BMP_temperature;BMP_pressure;BME280_temperature;BME280_humidity;BME280_pressure;Samples;Min_cycle;Max_cycle;Signal;HPM_P1;HPM_P2
2023/12/23 00:01:34;;;;;;;1.63;0.73;;;10.30;73.30;;;;;;5034280;28;20029;-62
2023/12/23 00:04:01;;;;;;;3.28;1.05;;;10.30;73.40;;;;;;5041741;28;20438;-63
2023/12/23 00:06:26;;;;;;;2.35;0.90;;;10.30;73.30;;;;;;5042373;28;20043;-62
2023/12/23 00:08:52;;;;;;;3.38;1.17;;;10.30;73.30;;;;;;5031543;28;20032;-63
2023/12/23 00:11:18;;;;;;;4.22;1.00;;;10.30;73.30;;;;;;5037685;28;20029;-62
2023/12/23 00:13:43;;;;;;;1.52;0.82;;;10.30;73.20;;;;;;5041342;28;20028;-62
2023/12/23 00:16:09;;;;;;;2.70;1.10;;;10.30;73.10;;;;;;5039634;28;20159;-63
2023/12/23 00:18:35;;;;;;;4.85;1.08;;;10.30;73.00;;;;;;5032824;28;20029;-62
2023/12/23 00:21:01;;;;;;;1.20;0.70;;;10.30;73.10;;;;;;5039640;28;20162;-62
2023/12/23 00:23:26;;;;;;;4.50;1.10;;;10.30;73.20;;;;;;5041620;28;20037;-62
2023/12/23 00:25:52;;;;;;;1.55;1.00;;;10.30;73.20;;;;;;5035827;28;20158;-62
2023/12/23 00:28:18;;;;;;;2.45;0.80;;;10.20;73.20;;;;;;5037534;28;20505;-61
2023/12/23 00:30:43;;;;;;;6.22;1.13;;;10.30;73.40;;;;;;5036544;28;20021;-61
2023/12/23 00:33:09;;;;;;;3.35;1.10;;;10.20;73.30;;;;;;5038075;28;20040;-62
2023/12/23 00:35:34;;;;;;;5.68;1.13;;;10.20;73.40;;;;;;5035132;28;20032;-62
2023/12/23 00:38:00;;;;;;;5.45;1.10;;;10.20;73.60;;;;;;5036608;28;20115;-62
2023/12/23 00:40:26;;;;;;;5.00;1.00;;;10.20;73.70;;;;;;5042983;28;20029;-62
2023/12/23 00:42:51;;;;;;;1.48;0.85;;;10.10;73.70;;;;;;5053094;28;20033;-62
2023/12/23 00:45:17;;;;;;;3.78;1.10;;;10.10;73.90;;;;;;5051480;28;20388;-62
2023/12/23 00:47:42;;;;;;;3.17;1.08;;;10.10;74.10;;;;;;5039753;28;20495;-62
2023/12/23 00:55:20;;;;;;;2.60;0.90;;;10.00;74.30;;;;;;5004643;28;20069;-64
2023/12/23 00:57:45;;;;;;;3.25;0.90;;;10.00;74.40;;;;;;5006525;28;20391;-63
2023/12/23 01:00:11;;;;;;;1.98;0.88;;;10.00;74.60;;;;;;5007707;28;20385;-63
2023/12/23 01:02:37;;;;;;;4.32;1.45;;;10.00;74.60;;;;;;5005702;28;20103;-63
2023/12/23 01:05:03;;;;;;;3.03;1.08;;;10.00;74.80;;;;;;5006852;28;20464;-63
2023/12/23 01:07:29;;;;;;;3.15;1.00;;;9.90;74.70;;;;;;5006317;28;20097;-63
2023/12/23 01:09:57;;;;;;;1.75;0.75;;;9.90;74.80;;;;;;5005465;28;20038;-63
2023/12/23 01:12:22;;;;;;;5.18;0.93;;;9.90;74.90;;;;;;4998804;28;20034;-63
2023/12/23 01:14:48;;;;;;;2.38;1.17;;;9.90;74.90;;;;;;5007037;28;20779;-63
2023/12/23 01:17:14;;;;;;;4.95;1.02;;;9.90;74.90;;;;;;5010030;28;20911;-63
2023/12/23 01:19:40;;;;;;;3.47;1.00;;;9.90;75.00;;;;;;5009721;28;20080;-63
2023/12/23 01:22:05;;;;;;;2.47;1.00;;;9.90;75.00;;;;;;5005474;28;20483;-62
2023/12/23 01:24:31;;;;;;;3.65;0.82;;;9.90;75.10;;;;;;4987948;28;20053;-63
2023/12/23 01:26:57;;;;;;;1.80;1.10;;;9.90;75.00;;;;;;4999600;28;20034;-63
2023/12/23 01:29:22;;;;;;;6.07;1.10;;;9.90;75.00;;;;;;5009782;28;20057;-62
2023/12/23 01:31:49;;;;;;;1.65;0.80;;;9.90;75.00;;;;;;5003905;28;20029;-63
2023/12/23 01:34:15;;;;;;;3.13;0.95;;;9.90;74.90;;;;;;5003065;28;20030;-62
2023/12/23 01:36:40;;;;;;;3.00;1.00;;;9.90;74.90;;;;;;5002991;28;20037;-61
2023/12/23 01:39:06;;;;;;;2.55;0.90;;;9.80;75.10;;;;;;5002503;28;20041;-62
2023/12/23 01:41:32;;;;;;;2.67;1.00;;;9.80;75.00;;;;;;5006070;28;20026;-62
2023/12/23 01:43:57;;;;;;;1.15;0.70;;;9.80;75.00;;;;;;5007717;28;20026;-62
2023/12/23 01:46:23;;;;;;;4.00;1.27;;;9.80;75.00;;;;;;5004440;28;20095;-62
2023/12/23 01:48:50;;;;;;;1.25;0.73;;;9.80;75.00;;;;;;5004946;28;20476;-62
2023/12/23 01:51:15;;;;;;;3.40;0.93;;;9.80;75.10;;;;;;4989082;28;20045;-63
2023/12/23 01:53:42;;;;;;;2.92;0.80;;;9.80;75.20;;;;;;4999641;28;20042;-63
2023/12/23 01:56:08;;;;;;;1.27;0.80;;;9.80;75.20;;;;;;5004446;28;20069;-63
2023/12/23 01:58:34;;;;;;;2.58;0.90;;;9.80;75.20;;;;;;5000250;28;20034;-63
2023/12/23 02:01:00;;;;;;;2.72;1.23;;;9.80;75.30;;;;;;4917114;28;20064;-63
2023/12/23 02:03:28;;;;;;;2.80;1.00;;;9.80;76.00;;;;;;4989849;28;20038;-64
2023/12/23 02:05:54;;;;;;;5.35;1.10;;;9.70;75.30;;;;;;5002687;28;20057;-62
2023/12/23 02:08:19;;;;;;;3.70;1.33;;;9.80;75.40;;;;;;5004306;28;20105;-62
2023/12/23 02:10:48;;;;;;;3.83;1.38;;;9.70;75.30;;;;;;5004120;28;20038;-62
2023/12/23 02:13:27;;;;;;;3.28;1.38;;;9.70;75.40;;;;;;5007620;28;20499;-62
2023/12/23 02:15:53;;;;;;;5.32;1.70;;;9.70;75.30;;;;;;4998410;28;20096;-63
2023/12/23 02:18:19;;;;;;;3.55;1.25;;;9.70;75.40;;;;;;5004233;28;20025;-62
2023/12/23 02:20:49;;;;;;;2.20;1.20;;;9.70;75.40;;;;;;5004087;28;20036;-63
2023/12/23 02:23:15;;;;;;;2.92;1.20;;;9.70;75.40;;;;;;5003722;28;20112;-63
2023/12/23 02:25:42;;;;;;;3.25;1.00;;;9.70;75.20;;;;;;5001674;28;20107;-63
2023/12/23 02:28:11;;;;;;;6.88;1.13;;;9.70;75.10;;;;;;5001871;28;20115;-63
2023/12/23 02:30:40;;;;;;;3.67;1.10;;;9.70;75.20;;;;;;5003113;28;20060;-63
2023/12/23 02:33:06;;;;;;;5.75;1.30;;;9.80;75.30;;;;;;5002172;28;20033;-63
2023/12/23 02:35:32;;;;;;;5.03;1.30;;;9.80;75.20;;;;;;5004164;28;20562;-63
2023/12/23 02:37:57;;;;;;;2.05;0.98;;;9.70;75.20;;;;;;5005629;28;20025;-64
2023/12/23 02:40:23;;;;;;;4.35;1.00;;;9.70;75.20;;;;;;5003456;28;20030;-63
2023/12/23 02:42:49;;;;;;;1.88;0.90;;;9.70;75.20;;;;;;5002498;28;20383;-63
2023/12/23 02:45:14;;;;;;;1.80;0.80;;;9.70;75.30;;;;;;5002591;28;20182;-63
2023/12/23 02:47:40;;;;;;;6.07;1.30;;;9.70;75.30;;;;;;5004052;28;20047;-63
2023/12/23 02:50:06;;;;;;;6.13;1.20;;;9.70;75.40;;;;;;5003313;28;20041;-63
2023/12/23 02:52:31;;;;;;;4.65;1.33;;;9.70;75.40;;;;;;5003409;28;20038;-63
2023/12/23 02:54:57;;;;;;;2.08;1.00;;;9.70;75.30;;;;;;4985686;28;20057;-63
2023/12/23 02:57:23;;;;;;;3.05;1.17;;;9.70;75.30;;;;;;5003956;28;20674;-62
2023/12/23 02:59:50;;;;;;;6.43;1.58;;;9.70;75.30;;;;;;5001940;28;20319;-62
2023/12/23 03:02:15;;;;;;;5.75;1.48;;;9.70;75.30;;;;;;4898056;28;20022;-63
2023/12/23 03:04:41;;;;;;;7.63;2.25;;;9.70;75.30;;;;;;4998544;28;20034;-62
2023/12/23 03:07:06;;;;;;;2.83;1.05;;;9.70;75.10;;;;;;5000520;28;20038;-62
2023/12/23 03:09:32;;;;;;;6.65;1.88;;;9.70;75.20;;;;;;5002862;28;20030;-62
2023/12/23 03:11:58;;;;;;;2.70;0.90;;;9.70;75.20;;;;;;5003998;28;20129;-62
2023/12/23 03:14:23;;;;;;;3.20;1.08;;;9.70;75.20;;;;;;5003199;28;20042;-63
2023/12/23 03:16:49;;;;;;;3.03;1.08;;;9.70;75.20;;;;;;5003279;28;20466;-62
2023/12/23 03:19:15;;;;;;;4.20;1.15;;;9.70;75.20;;;;;;5002263;28;20048;-63
2023/12/23 03:21:48;;;;;;;4.63;1.17;;;9.70;75.20;;;;;;5003241;28;20036;-61
2023/12/23 03:24:15;;;;;;;1.85;1.10;;;9.70;75.30;;;;;;4998016;28;20041;-62
2023/12/23 03:26:40;;;;;;;2.33;1.10;;;9.60;75.80;;;;;;5007902;28;20045;-62
2023/12/23 03:29:06;;;;;;;3.10;1.05;;;9.60;75.20;;;;;;5001855;28;20268;-64
2023/12/23 03:31:33;;;;;;;4.63;1.20;;;9.60;75.20;;;;;;5002757;28;20105;-62
2023/12/23 03:34:02;;;;;;;1.95;1.20;;;9.60;75.20;;;;;;5002565;28;20472;-62
2023/12/23 03:36:28;;;;;;;3.42;1.17;;;9.60;75.20;;;;;;5002782;28;20054;-62
2023/12/23 03:38:55;;;;;;;8.23;1.55;;;9.60;75.30;;;;;;5003412;28;20535;-63
2023/12/23 03:41:21;;;;;;;4.35;1.58;;;9.60;75.20;;;;;;4999297;28;20101;-64
2023/12/23 03:43:47;;;;;;;4.35;1.00;;;9.60;75.40;;;;;;4998992;28;20026;-62
2023/12/23 03:46:13;;;;;;;4.80;1.50;;;9.60;75.30;;;;;;5001804;28;20046;-62
2023/12/23 03:48:38;;;;;;;3.13;1.00;;;9.60;75.30;;;;;;4998252;28;20026;-61
2023/12/23 03:51:04;;;;;;;2.70;1.05;;;9.60;75.20;;;;;;5002428;28;20075;-63
2023/12/23 03:53:29;;;;;;;1.27;0.75;;;9.60;75.20;;;;;;5004642;28;20077;-62
2023/12/23 03:55:55;;;;;;;0.85;0.70;;;9.60;75.20;;;;;;5002381;28;20429;-63
2023/12/23 03:58:21;;;;;;;0.90;0.75;;;9.60;75.30;;;;;;5003660;28;20028;-63
2023/12/23 04:00:47;;;;;;;1.92;0.80;;;9.60;75.20;;;;;;4916625;28;20029;-62
2023/12/23 04:03:13;;;;;;;2.88;0.90;;;9.60;75.20;;;;;;4998637;28;20113;-63
2023/12/23 04:05:39;;;;;;;4.30;0.93;;;9.60;75.20;;;;;;5002597;28;20048;-63
2023/12/23 04:08:05;;;;;;;1.38;0.77;;;9.60;75.10;;;;;;4998485;28;20108;-63
2023/12/23 04:10:30;;;;;;;3.63;1.20;;;9.60;75.10;;;;;;5001516;28;20072;-63
2023/12/23 04:12:56;;;;;;;2.65;0.90;;;9.60;75.20;;;;;;5002671;28;20444;-63
2023/12/23 04:15:22;;;;;;;1.30;0.77;;;9.60;75.10;;;;;;5000392;28;20033;-63
2023/12/23 04:17:47;;;;;;;2.60;0.93;;;9.60;75.20;;;;;;5002323;28;20018;-63
2023/12/23 04:20:13;;;;;;;1.92;0.73;;;9.60;75.20;;;;;;5004622;28;20177;-63
2023/12/23 04:22:39;;;;;;;2.45;1.13;;;9.50;75.10;;;;;;5002581;28;20065;-63
2023/12/23 04:25:05;;;;;;;2.30;1.10;;;9.50;75.10;;;;;;4998755;28;20053;-63
2023/12/23 04:27:30;;;;;;;1.52;0.90;;;9.50;75.10;;;;;;5002299;28;20057;-63
2023/12/23 04:29:56;;;;;;;2.63;0.98;;;9.50;75.20;;;;;;5007247;28;20113;-64
2023/12/23 04:32:22;;;;;;;1.23;0.85;;;9.50;75.10;;;;;;5003036;28;20573;-63
2023/12/23 04:34:47;;;;;;;3.40;0.90;;;9.50;75.10;;;;;;5007648;28;20538;-63
2023/12/23 04:37:13;;;;;;;1.27;0.70;;;9.50;75.20;;;;;;4983461;28;20470;-63
2023/12/23 04:39:38;;;;;;;2.05;0.80;;;9.50;75.10;;;;;;5001174;28;20112;-62
2023/12/23 04:42:04;;;;;;;2.30;0.90;;;9.50;75.90;;;;;;5002891;28;20030;-62
2023/12/23 04:44:30;;;;;;;1.30;0.75;;;9.50;75.20;;;;;;5001236;28;20726;-62
2023/12/23 04:46:56;;;;;;;0.90;0.77;;;9.50;75.20;;;;;;4984293;28;20030;-62
2023/12/23 04:49:21;;;;;;;1.85;0.93;;;9.50;75.20;;;;;;5006684;28;20041;-64
2023/12/23 04:51:47;;;;;;;0.88;0.70;;;9.50;75.30;;;;;;5003997;28;20459;-62
2023/12/23 04:54:13;;;;;;;0.70;0.57;;;9.50;75.20;;;;;;5011493;28;20058;-63
2023/12/23 04:56:39;;;;;;;0.70;0.60;;;9.50;75.20;;;;;;5010238;28;20365;-63
2023/12/23 04:59:06;;;;;;;0.70;0.60;;;9.50;75.20;;;;;;5005400;28;20100;-62
2023/12/23 05:01:32;;;;;;;0.55;0.50;;;9.50;75.20;;;;;;4941085;28;20116;-62
2023/12/23 05:03:57;;;;;;;2.85;0.80;;;9.50;75.20;;;;;;5008155;28;20095;-63
2023/12/23 05:06:23;;;;;;;2.30;0.90;;;9.40;75.00;;;;;;5006349;28;20056;-63
2023/12/23 05:08:48;;;;;;;2.47;0.95;;;9.40;75.00;;;;;;5008103;28;20022;-62
2023/12/23 05:11:14;;;;;;;7.55;0.88;;;9.40;75.00;;;;;;5008332;28;20079;-64
2023/12/23 05:13:40;;;;;;;3.90;1.00;;;9.50;75.00;;;;;;5012491;28;20077;-62
2023/12/23 05:16:06;;;;;;;3.30;1.10;;;9.40;74.80;;;;;;5004146;28;20044;-63
2023/12/23 05:18:32;;;;;;;2.55;1.00;;;9.40;74.70;;;;;;5007768;28;20026;-62
2023/12/23 05:20:58;;;;;;;2.38;1.00;;;9.40;74.70;;;;;;5011105;28;20787;-61
2023/12/23 05:23:23;;;;;;;2.30;0.88;;;9.40;74.60;;;;;;4992361;28;20033;-63
2023/12/23 05:25:50;;;;;;;1.45;0.90;;;9.40;74.60;;;;;;5006033;28;20036;-63
2023/12/23 05:28:16;;;;;;;2.22;0.90;;;9.40;74.50;;;;;;5002874;28;20936;-63
2023/12/23 05:30:42;;;;;;;2.25;0.82;;;9.40;74.50;;;;;;5007622;28;20030;-63
2023/12/23 05:33:07;;;;;;;2.50;1.10;;;9.40;74.40;;;;;;5007374;28;20033;-64
2023/12/23 05:35:33;;;;;;;2.30;0.80;;;9.40;74.30;;;;;;5007219;28;20046;-63
2023/12/23 05:37:59;;;;;;;2.78;0.82;;;9.40;74.20;;;;;;5013186;28;20033;-63
2023/12/23 05:40:24;;;;;;;2.92;1.10;;;9.40;74.20;;;;;;5011377;28;20120;-62
2023/12/23 05:42:50;;;;;;;1.75;0.75;;;9.40;74.20;;;;;;5008607;28;20498;-63
2023/12/23 05:45:16;;;;;;;1.95;0.80;;;9.40;74.20;;;;;;5006627;28;20038;-62
2023/12/23 05:47:43;;;;;;;2.53;1.00;;;9.40;73.90;;;;;;4990322;28;20104;-64
2023/12/23 05:50:09;;;;;;;0.88;0.60;;;9.40;73.80;;;;;;5006041;28;20129;-64
2023/12/23 05:52:35;;;;;;;2.13;0.90;;;9.40;73.90;;;;;;5012987;28;20029;-61
2023/12/23 05:55:00;;;;;;;1.27;0.68;;;9.40;73.90;;;;;;5007924;28;20058;-63
2023/12/23 05:57:26;;;;;;;1.10;0.70;;;9.40;74.00;;;;;;5007438;28;20034;-63
2023/12/23 05:59:54;;;;;;;3.95;0.90;;;9.50;73.80;;;;;;5002127;28;20043;-61
2023/12/23 06:02:19;;;;;;;0.63;0.60;;;9.50;73.90;;;;;;4918819;28;20029;-63
2023/12/23 06:04:45;;;;;;;0.85;0.60;;;9.50;73.80;;;;;;4986709;28;20140;-63
2023/12/23 06:07:10;;;;;;;0.98;0.50;;;9.50;73.70;;;;;;5001749;28;20535;-63
2023/12/23 06:09:36;;;;;;;0.75;0.50;;;9.50;73.70;;;;;;4998788;28;20033;-63
2023/12/23 06:12:02;;;;;;;0.90;0.60;;;9.50;73.70;;;;;;5004046;28;20057;-63
2023/12/23 06:14:28;;;;;;;1.10;0.50;;;9.50;73.70;;;;;;5003552;28;20042;-63
2023/12/23 06:16:54;;;;;;;2.15;0.70;;;9.50;73.50;;;;;;5004922;28;20493;-64
2023/12/23 06:19:19;;;;;;;1.95;0.60;;;9.50;73.30;;;;;;5004115;28;20026;-64
2023/12/23 06:21:46;;;;;;;0.60;0.60;;;9.50;73.40;;;;;;5004990;28;20018;-64
2023/12/23 06:24:13;;;;;;;0.82;0.50;;;9.60;73.50;;;;;;5005806;28;20126;-64
2023/12/23 06:26:38;;;;;;;0.98;0.60;;;9.60;73.50;;;;;;5002529;28;20120;-64
2023/12/23 06:29:04;;;;;;;0.85;0.65;;;9.60;73.60;;;;;;5004601;28;20531;-65
2023/12/23 06:31:29;;;;;;;1.55;0.60;;;9.60;73.60;;;;;;5004052;28;20037;-62
2023/12/23 06:33:55;;;;;;;1.05;0.57;;;9.60;73.50;;;;;;5006353;28;20433;-62
2023/12/23 06:36:21;;;;;;;0.40;0.40;;;9.60;73.50;;;;;;5004544;28;20485;-64
2023/12/23 06:38:46;;;;;;;0.40;0.40;;;9.60;73.50;;;;;;4997370;28;20156;-63
2023/12/23 06:41:12;;;;;;;0.57;0.52;;;9.50;73.50;;;;;;5003671;28;20048;-62
2023/12/23 06:43:38;;;;;;;0.60;0.50;;;9.50;73.70;;;;;;5003803;28;20534;-63
2023/12/23 06:46:04;;;;;;;0.50;0.50;;;9.50;73.70;;;;;;5003845;28;20038;-63
2023/12/23 06:48:30;;;;;;;0.70;0.50;;;9.50;73.70;;;;;;5004235;28;20076;-62
2023/12/23 06:50:55;;;;;;;0.40;0.40;;;9.50;73.90;;;;;;5004159;28;20428;-63
2023/12/23 06:53:21;;;;;;;0.50;0.50;;;9.40;74.00;;;;;;5000799;28;20157;-63
2023/12/23 06:55:47;;;;;;;0.43;0.43;;;9.40;74.00;;;;;;5005589;28;20105;-63
2023/12/23 06:58:12;;;;;;;1.17;0.50;;;9.40;74.00;;;;;;5003638;28;20373;-63
2023/12/23 07:00:38;;;;;;;0.50;0.50;;;9.40;74.10;;;;;;5002790;28;20088;-63
2023/12/23 07:03:05;;;;;;;0.50;0.50;;;9.40;74.20;;;;;;4999546;28;20103;-63
2023/12/23 07:05:31;;;;;;;0.60;0.57;;;9.40;74.30;;;;;;5001803;28;20085;-62
2023/12/23 07:07:57;;;;;;;0.60;0.60;;;9.40;74.40;;;;;;5003085;28;20101;-62
2023/12/23 07:10:22;;;;;;;0.50;0.50;;;9.40;74.50;;;;;;4998326;28;20028;-63
2023/12/23 07:12:48;;;;;;;0.60;0.43;;;9.40;74.50;;;;;;5001054;28;20100;-62
2023/12/23 07:15:13;;;;;;;0.50;0.50;;;9.40;74.50;;;;;;5002279;28;20485;-63
2023/12/23 07:17:39;;;;;;;0.45;0.45;;;9.40;74.40;;;;;;5007082;28;20324;-62
2023/12/23 07:20:05;;;;;;;0.73;0.50;;;9.40;74.40;;;;;;4985554;28;20044;-63
2023/12/23 07:22:31;;;;;;;0.50;0.50;;;9.50;74.20;;;;;;5001638;28;20805;-63
2023/12/23 07:24:57;;;;;;;0.60;0.60;;;9.50;75.10;;;;;;4998679;28;20104;-63
2023/12/23 07:27:23;;;;;;;0.60;0.60;;;9.50;74.30;;;;;;5002629;28;20170;-65
2023/12/23 07:29:48;;;;;;;0.88;0.80;;;9.50;74.20;;;;;;5006589;28;20101;-65
2023/12/23 07:32:14;;;;;;;0.60;0.60;;;9.50;74.10;;;;;;5003664;28;20117;-66
2023/12/23 07:34:40;;;;;;;0.50;0.50;;;9.50;74.20;;;;;;5002225;28;20022;-66
2023/12/23 07:37:08;;;;;;;0.50;0.50;;;9.50;74.10;;;;;;5003620;28;20047;-66
2023/12/23 07:39:34;;;;;;;0.50;0.50;;;9.60;74.10;;;;;;5003952;28;20033;-66
2023/12/23 07:42:00;;;;;;;0.50;0.40;;;9.60;74.20;;;;;;5007652;28;20092;-66
2023/12/23 07:44:26;;;;;;;0.40;0.40;;;9.60;74.10;;;;;;5002982;28;20028;-64
2023/12/23 07:46:51;;;;;;;0.43;0.43;;;9.60;74.00;;;;;;5001539;28;20038;-66
2023/12/23 07:49:17;;;;;;;0.93;0.70;;;9.60;73.90;;;;;;5002737;28;20160;-66
2023/12/23 07:51:43;;;;;;;0.60;0.60;;;9.60;73.80;;;;;;4981180;28;20026;-66
2023/12/23 07:54:08;;;;;;;0.50;0.50;;;9.60;73.90;;;;;;5000257;28;20054;-65
2023/12/23 07:56:34;;;;;;;1.13;0.60;;;9.60;73.80;;;;;;4997482;28;20034;-66
2023/12/23 07:58:59;;;;;;;1.55;0.88;;;9.60;73.80;;;;;;4999873;28;20033;-66
2023/12/23 08:01:25;;;;;;;0.95;0.70;;;9.60;73.80;;;;;;5004070;28;20543;-66
2023/12/23 08:03:51;;;;;;;1.08;0.82;;;9.60;73.80;;;;;;5002347;28;20037;-66
2023/12/23 08:06:18;;;;;;;3.55;1.42;;;9.60;73.80;;;;;;5001379;28;20038;-66
2023/12/23 08:08:44;;;;;;;1.80;1.20;;;9.70;73.90;;;;;;4984498;28;20041;-66
2023/12/23 08:11:10;;;;;;;0.93;0.60;;;9.70;74.10;;;;;;5002594;28;20068;-66
2023/12/23 08:13:36;;;;;;;0.80;0.65;;;9.70;73.80;;;;;;5000374;28;20097;-66
2023/12/23 08:16:02;;;;;;;0.50;0.50;;;9.70;73.70;;;;;;5001533;28;20519;-66
2023/12/23 08:18:29;;;;;;;1.08;0.60;;;9.70;73.40;;;;;;4983420;28;20212;-66
2023/12/23 08:20:55;;;;;;;0.95;0.70;;;9.70;73.50;;;;;;4999601;28;20038;-65
2023/12/23 08:23:20;;;;;;;1.35;0.55;;;9.80;73.60;;;;;;4995930;28;20041;-66
2023/12/23 08:25:47;;;;;;;0.50;0.50;;;9.80;73.40;;;;;;4998623;28;20050;-65
2023/12/23 08:28:12;;;;;;;0.85;0.70;;;9.80;73.30;;;;;;4996757;28;20088;-67
2023/12/23 08:30:39;;;;;;;0.80;0.80;;;9.80;73.30;;;;;;4997874;28;20436;-68
2023/12/23 08:33:05;;;;;;;0.50;0.50;;;9.80;73.20;;;;;;5000386;28;20480;-67
2023/12/23 08:35:31;;;;;;;0.50;0.50;;;9.80;73.00;;;;;;5003124;28;20065;-67
2023/12/23 08:37:58;;;;;;;0.43;0.43;;;9.80;73.20;;;;;;5003097;28;20555;-67
2023/12/23 08:40:24;;;;;;;0.50;0.50;;;9.90;73.20;;;;;;5002281;28;20025;-66
2023/12/23 08:42:50;;;;;;;0.95;0.50;;;9.90;73.30;;;;;;5001618;28;20808;-66
2023/12/23 08:45:17;;;;;;;0.95;0.50;;;9.90;73.10;;;;;;4983537;28;20617;-66
2023/12/23 08:47:43;;;;;;;0.95;0.60;;;9.90;73.20;;;;;;4999971;28;20048;-67
2023/12/23 08:50:08;;;;;;;0.80;0.80;;;9.90;73.20;;;;;;4984054;28;20042;-68
2023/12/23 08:52:34;;;;;;;0.93;0.60;;;9.90;73.20;;;;;;5005324;28;20030;-66
2023/12/23 08:55:01;;;;;;;2.38;0.90;;;9.90;73.10;;;;;;5002553;28;20037;-66
2023/12/23 08:57:27;;;;;;;1.00;0.60;;;9.80;73.40;;;;;;4973334;28;20412;-66
2023/12/23 08:59:53;;;;;;;0.60;0.60;;;9.90;72.90;;;;;;4999751;28;20053;-66
2023/12/23 09:02:18;;;;;;;1.58;0.50;;;9.90;72.60;;;;;;4901292;28;20041;-65
2023/12/23 09:04:44;;;;;;;0.73;0.60;;;9.90;72.50;;;;;;5001096;28;20030;-65
2023/12/23 09:07:10;;;;;;;0.40;0.40;;;9.90;72.60;;;;;;4997461;28;20117;-66
2023/12/23 09:09:36;;;;;;;0.40;0.40;;;9.90;72.40;;;;;;5002547;28;20447;-65
2023/12/23 09:12:01;;;;;;;0.45;0.45;;;9.90;72.50;;;;;;5004602;28;20030;-65
2023/12/23 09:14:27;;;;;;;0.40;0.40;;;9.90;72.40;;;;;;4994146;28;20487;-66
2023/12/23 09:16:53;;;;;;;0.60;0.60;;;9.90;72.50;;;;;;5000066;28;20030;-66
2023/12/23 09:19:18;;;;;;;2.78;0.52;;;10.00;72.60;;;;;;5001957;28;20080;-64
2023/12/23 09:21:44;;;;;;;1.15;0.50;;;10.00;72.90;;;;;;5000397;28;20480;-66
2023/12/23 09:24:09;;;;;;;1.85;0.50;;;10.00;72.50;;;;;;5000742;28;20120;-66
2023/12/23 09:26:35;;;;;;;0.70;0.55;;;10.00;72.50;;;;;;4999709;28;20044;-65
2023/12/23 09:29:01;;;;;;;1.00;0.60;;;10.00;72.40;;;;;;5001771;28;20520;-66
2023/12/23 09:31:27;;;;;;;0.50;0.50;;;10.00;72.40;;;;;;5001126;28;20038;-66
2023/12/23 09:33:52;;;;;;;0.60;0.50;;;10.10;72.20;;;;;;5001846;28;20029;-65
2023/12/23 09:36:18;;;;;;;0.50;0.50;;;10.00;72.20;;;;;;5002278;28;20037;-65
2023/12/23 09:38:44;;;;;;;0.40;0.40;;;10.10;72.40;;;;;;4993990;28;20034;-65
2023/12/23 09:41:09;;;;;;;0.70;0.70;;;10.10;72.40;;;;;;4999995;28;20021;-65
2023/12/23 09:43:35;;;;;;;0.50;0.50;;;10.10;72.10;;;;;;5004787;28;20030;-66
2023/12/23 09:46:03;;;;;;;1.70;0.60;;;10.00;72.10;;;;;;5009271;28;20034;-66
2023/12/23 09:48:29;;;;;;;0.50;0.50;;;10.10;71.90;;;;;;5003409;28;20046;-66
2023/12/23 09:50:55;;;;;;;0.50;0.50;;;10.10;71.90;;;;;;5004153;28;20579;-65
2023/12/23 09:53:21;;;;;;;0.52;0.50;;;10.10;71.70;;;;;;5006109;28;20054;-64
2023/12/23 09:55:47;;;;;;;0.63;0.50;;;10.10;71.40;;;;;;5001479;28;20113;-65
2023/12/23 09:58:13;;;;;;;0.45;0.45;;;10.10;71.30;;;;;;5008702;28;20040;-65
2023/12/23 10:00:39;;;;;;;0.47;0.47;;;10.10;71.10;;;;;;5006203;28;20052;-64
2023/12/23 10:03:05;;;;;;;0.40;0.40;;;10.10;70.90;;;;;;5007044;28;20175;-64
2023/12/23 10:05:31;;;;;;;1.00;0.50;;;10.10;70.80;;;;;;5006636;28;20030;-65
2023/12/23 10:08:00;;;;;;;0.93;0.60;;;10.10;70.70;;;;;;5002113;28;20511;-64
2023/12/23 10:10:26;;;;;;;0.50;0.50;;;10.10;70.80;;;;;;5005264;28;20033;-65
2023/12/23 10:12:52;;;;;;;0.57;0.40;;;10.10;70.70;;;;;;5005870;28;20053;-65
2023/12/23 10:15:18;;;;;;;0.50;0.50;;;10.10;70.40;;;;;;5005340;28;20108;-66
2023/12/23 10:17:44;;;;;;;0.50;0.50;;;10.10;70.60;;;;;;5002232;28;20726;-66
2023/12/23 10:20:13;;;;;;;0.98;0.73;;;10.10;70.50;;;;;;5008000;28;20033;-66
2023/12/23 10:22:45;;;;;;;0.40;0.40;;;10.10;70.70;;;;;;5003707;28;20037;-64
2023/12/23 10:25:12;;;;;;;0.88;0.70;;;10.10;70.60;;;;;;5004672;28;20104;-65
2023/12/23 10:27:40;;;;;;;0.50;0.50;;;10.10;70.60;;;;;;5002495;28;20041;-65
2023/12/23 10:30:11;;;;;;;0.57;0.50;;;10.10;71.00;;;;;;5003597;28;20040;-64
2023/12/23 10:32:38;;;;;;;0.50;0.50;;;10.00;70.90;;;;;;5005514;28;20044;-64
2023/12/23 10:35:06;;;;;;;0.60;0.52;;;10.10;71.10;;;;;;5011067;28;20032;-66
2023/12/23 10:37:34;;;;;;;0.57;0.57;;;10.00;71.20;;;;;;5003707;28;20463;-65
2023/12/23 10:40:09;;;;;;;0.57;0.57;;;10.00;71.20;;;;;;5003955;28;20472;-65
2023/12/23 10:42:37;;;;;;;0.70;0.70;;;10.00;71.40;;;;;;4997651;28;20022;-64
2023/12/23 10:45:04;;;;;;;1.52;0.80;;;9.90;71.40;;;;;;5001308;28;20033;-64
2023/12/23 10:47:31;;;;;;;0.63;0.63;;;9.90;71.40;;;;;;5006686;28;20029;-66
2023/12/23 10:49:57;;;;;;;0.65;0.60;;;9.90;71.40;;;;;;5006888;28;20488;-64
2023/12/23 10:52:24;;;;;;;1.27;0.90;;;9.90;71.50;;;;;;5001139;28;21233;-64
2023/12/23 10:54:51;;;;;;;2.17;0.73;;;9.90;71.00;;;;;;5002983;28;20046;-64
2023/12/23 10:57:17;;;;;;;2.38;1.77;;;9.90;71.20;;;;;;5001565;28;20072;-65
2023/12/23 10:59:43;;;;;;;0.50;0.50;;;9.90;71.40;;;;;;5002299;28;20030;-66
2023/12/23 11:02:16;;;;;;;0.60;0.50;;;10.00;71.20;;;;;;4926359;28;20033;-65
2023/12/23 11:04:46;;;;;;;0.57;0.57;;;10.00;71.10;;;;;;5001369;28;20029;-64
2023/12/23 11:07:16;;;;;;;0.70;0.70;;;10.00;70.70;;;;;;5006164;28;20054;-62
2023/12/23 11:09:45;;;;;;;0.50;0.50;;;10.00;70.70;;;;;;5006065;28;20372;-63
2023/12/23 11:12:11;;;;;;;0.50;0.50;;;10.00;70.60;;;;;;5001855;28;20045;-63
2023/12/23 11:14:37;;;;;;;0.50;0.50;;;10.00;70.60;;;;;;5001820;28;20555;-65
2023/12/23 11:17:22;;;;;;;0.68;0.60;;;10.00;70.70;;;;;;5004887;28;20040;-63
2023/12/23 11:19:48;;;;;;;1.40;1.30;;;10.00;70.40;;;;;;5001467;28;20109;-64
2023/12/23 11:22:23;;;;;;;1.08;0.50;;;10.10;70.90;;;;;;5003716;28;20141;-65
2023/12/23 11:24:48;;;;;;;0.50;0.50;;;10.10;70.80;;;;;;5003421;28;20033;-65
2023/12/23 11:27:35;;;;;;;0.50;0.50;;;10.10;70.70;;;;;;5007150;28;20327;-64
2023/12/23 11:30:05;;;;;;;0.50;0.50;;;10.10;70.10;;;;;;4999109;28;20535;-64
2023/12/23 11:32:39;;;;;;;0.73;0.60;;;10.10;70.40;;;;;;5003511;28;20026;-64
2023/12/23 11:35:14;;;;;;;1.55;0.73;;;10.10;70.10;;;;;;5004160;28;20037;-65
2023/12/23 11:37:56;;;;;;;0.55;0.55;;;10.20;70.30;;;;;;5003947;28;20109;-64
2023/12/23 11:40:22;;;;;;;0.50;0.50;;;10.20;69.90;;;;;;5003168;28;20030;-65
2023/12/23 11:42:49;;;;;;;0.60;0.60;;;10.20;70.20;;;;;;4999645;28;20028;-63
2023/12/23 11:45:15;;;;;;;1.10;0.77;;;10.20;70.20;;;;;;5002624;28;20133;-63
2023/12/23 11:47:41;;;;;;;0.68;0.68;;;10.20;69.70;;;;;;5004492;28;20037;-64
2023/12/23 11:50:08;;;;;;;0.88;0.70;;;10.20;69.90;;;;;;5007264;28;20033;-65
2023/12/23 11:52:34;;;;;;;0.80;0.70;;;10.30;70.30;;;;;;5000554;28;20064;-64
2023/12/23 11:55:01;;;;;;;1.80;1.27;;;10.20;70.10;;;;;;5004318;28;20506;-64
2023/12/23 11:57:27;;;;;;;1.15;0.85;;;10.20;69.90;;;;;;4989893;28;20120;-64
2023/12/23 11:59:54;;;;;;;1.52;0.98;;;10.20;69.80;;;;;;5002323;28;20061;-65
2023/12/23 12:02:20;;;;;;;0.60;0.60;;;10.20;70.00;;;;;;4940194;28;20032;-64
2023/12/23 12:04:46;;;;;;;0.50;0.50;;;10.20;69.70;;;;;;5009287;28;20029;-64
2023/12/23 12:07:12;;;;;;;1.35;0.57;;;10.20;69.90;;;;;;5002450;28;20574;-64
2023/12/23 12:09:37;;;;;;;1.00;0.70;;;10.20;70.00;;;;;;5005057;28;20057;-64
2023/12/23 12:12:04;;;;;;;0.60;0.60;;;10.20;70.00;;;;;;4989674;28;20046;-65
2023/12/23 12:14:31;;;;;;;0.50;0.50;;;10.20;70.20;;;;;;5000838;28;21329;-65
2023/12/23 12:16:56;;;;;;;0.65;0.40;;;10.10;70.20;;;;;;5000520;28;20107;-65
2023/12/23 12:19:22;;;;;;;0.50;0.50;;;10.10;70.20;;;;;;4999261;28;20038;-64
2023/12/23 12:21:48;;;;;;;0.50;0.50;;;10.10;70.40;;;;;;5005075;28;20127;-64
2023/12/23 12:24:13;;;;;;;0.65;0.50;;;10.10;70.50;;;;;;5000512;28;20388;-64
2023/12/23 12:26:41;;;;;;;0.60;0.60;;;10.10;70.60;;;;;;5004405;28;20040;-63
2023/12/23 12:29:07;;;;;;;0.80;0.80;;;10.10;70.80;;;;;;5004733;28;20026;-64
2023/12/23 12:31:33;;;;;;;0.75;0.65;;;10.00;70.70;;;;;;5001840;28;20359;-65
2023/12/23 12:33:58;;;;;;;0.80;0.50;;;10.00;70.70;;;;;;5005119;28;20435;-64
2023/12/23 12:36:24;;;;;;;0.40;0.40;;;10.00;70.60;;;;;;5001994;28;20037;-64
2023/12/23 12:38:50;;;;;;;0.50;0.50;;;10.00;70.80;;;;;;5001868;28;20030;-63
2023/12/23 12:41:16;;;;;;;0.50;0.50;;;10.00;70.70;;;;;;5001906;28;20033;-66
2023/12/23 12:43:42;;;;;;;0.60;0.60;;;10.00;70.80;;;;;;5001662;28;20034;-65
2023/12/23 12:46:08;;;;;;;0.60;0.60;;;10.00;71.40;;;;;;4998240;28;20130;-63
2023/12/23 12:48:35;;;;;;;0.63;0.63;;;10.00;70.80;;;;;;4998015;28;20038;-65
2023/12/23 12:51:01;;;;;;;0.93;0.70;;;10.00;70.80;;;;;;5002731;28;20034;-64
2023/12/23 12:53:30;;;;;;;1.02;0.80;;;10.00;70.80;;;;;;5006347;28;20046;-65